sensor_id;sensor_type;location;lat;lon;timestamp;temperature;humidity
15160;DHT22;7680;48.800;9.680;2024-02-21T00:01:29;4.50;99.90
15160;DHT22;7680;48.800;9.680;2024-02-21T00:06:33;4.50;99.90
15160;DHT22;7680;48.800;9.680;2024-02-21T00:11:36;4.40;99.90
15160;DHT22;7680;48.800;9.680;2024-02-21T00:16:40;4.40;99.90
15160;DHT22;7680;48.800;9.680;2024-02-21T00:21:43;4.40;99.90
15160;DHT22;7680;48.800;9.680;2024-02-21T00:26:47;4.50;99.90
15160;DHT22;7680;48.800;9.680;2024-02-21T00:31:51;4.50;99.90
15160;DHT22;7680;48.800;9.680;2024-02-21T00:36:55;4.50;99.90
15160;DHT22;7680;48.800;9.680;2024-02-21T00:41:58;4.60;99.90
15160;DHT22;7680;48.800;9.680;2024-02-21T00:47:03;4.60;99.90
15160;DHT22;7680;48.800;9.680;2024-02-21T00:52:06;4.60;99.90
15160;DHT22;7680;48.800;9.680;2024-02-21T00:57:09;4.60;99.90
15160;DHT22;7680;48.800;9.680;2024-02-21T01:02:14;4.60;99.90
15160;DHT22;7680;48.800;9.680;2024-02-21T01:07:17;4.70;99.90
15160;DHT22;7680;48.800;9.680;2024-02-21T01:12:20;4.60;99.90
15160;DHT22;7680;48.800;9.680;2024-02-21T01:17:25;4.70;99.90
15160;DHT22;7680;48.800;9.680;2024-02-21T01:22:28;4.70;99.90
15160;DHT22;7680;48.800;9.680;2024-02-21T01:27:31;4.80;99.90
15160;DHT22;7680;48.800;9.680;2024-02-21T01:32:35;4.90;99.90
15160;DHT22;7680;48.800;9.680;2024-02-21T01:37:39;4.80;99.90
15160;DHT22;7680;48.800;9.680;2024-02-21T01:42:42;4.80;99.90
15160;DHT22;7680;48.800;9.680;2024-02-21T01:47:47;4.90;99.90
15160;DHT22;7680;48.800;9.680;2024-02-21T01:52:51;4.80;99.90
15160;DHT22;7680;48.800;9.680;2024-02-21T01:57:54;4.80;99.90
15160;DHT22;7680;48.800;9.680;2024-02-21T02:02:59;4.90;99.90
15160;DHT22;7680;48.800;9.680;2024-02-21T02:08:02;4.90;99.90
15160;DHT22;7680;48.800;9.680;2024-02-21T02:13:06;4.90;99.90
15160;DHT22;7680;48.800;9.680;2024-02-21T02:18:10;4.90;99.90
15160;DHT22;7680;48.800;9.680;2024-02-21T02:23:21;5.00;99.90
15160;DHT22;7680;48.800;9.680;2024-02-21T02:28:25;5.00;99.90
15160;DHT22;7680;48.800;9.680;2024-02-21T02:33:29;5.00;99.90
15160;DHT22;7680;48.800;9.680;2024-02-21T02:38:33;5.00;99.90
15160;DHT22;7680;48.800;9.680;2024-02-21T02:43:37;5.00;99.90
15160;DHT22;7680;48.800;9.680;2024-02-21T02:48:40;5.00;99.90
15160;DHT22;7680;48.800;9.680;2024-02-21T02:53:44;5.10;99.90
15160;DHT22;7680;48.800;9.680;2024-02-21T02:58:47;5.10;99.90
15160;DHT22;7680;48.800;9.680;2024-02-21T03:03:51;5.20;99.90
15160;DHT22;7680;48.800;9.680;2024-02-21T03:08:55;5.30;99.90
15160;DHT22;7680;48.800;9.680;2024-02-21T03:13:58;5.30;99.90
15160;DHT22;7680;48.800;9.680;2024-02-21T03:19:02;5.30;99.90
15160;DHT22;7680;48.800;9.680;2024-02-21T03:24:07;5.40;99.90
15160;DHT22;7680;48.800;9.680;2024-02-21T03:29:11;5.40;99.90
15160;DHT22;7680;48.800;9.680;2024-02-21T03:34:14;5.40;99.90
15160;DHT22;7680;48.800;9.680;2024-02-21T03:39:18;5.30;99.90
15160;DHT22;7680;48.800;9.680;2024-02-21T03:44:22;5.50;99.90
15160;DHT22;7680;48.800;9.680;2024-02-21T03:49:26;5.40;99.90
15160;DHT22;7680;48.800;9.680;2024-02-21T03:54:30;5.50;99.90
15160;DHT22;7680;48.800;9.680;2024-02-21T03:59:34;5.50;99.90
15160;DHT22;7680;48.800;9.680;2024-02-21T04:04:37;5.50;99.90
15160;DHT22;7680;48.800;9.680;2024-02-21T04:09:42;5.60;99.90
15160;DHT22;7680;48.800;9.680;2024-02-21T04:14:45;5.60;99.90
15160;DHT22;7680;48.800;9.680;2024-02-21T04:19:48;5.50;99.90
15160;DHT22;7680;48.800;9.680;2024-02-21T04:24:53;5.40;99.90
15160;DHT22;7680;48.800;9.680;2024-02-21T04:29:56;5.30;99.90
15160;DHT22;7680;48.800;9.680;2024-02-21T04:34:59;5.30;99.90
15160;DHT22;7680;48.800;9.680;2024-02-21T04:40:05;5.30;99.90
15160;DHT22;7680;48.800;9.680;2024-02-21T04:45:10;5.20;99.90
15160;DHT22;7680;48.800;9.680;2024-02-21T04:50:13;5.20;99.90
15160;DHT22;7680;48.800;9.680;2024-02-21T04:55:18;5.20;99.90
15160;DHT22;7680;48.800;9.680;2024-02-21T05:00:21;5.20;99.90
15160;DHT22;7680;48.800;9.680;2024-02-21T05:05:25;5.20;99.90
15160;DHT22;7680;48.800;9.680;2024-02-21T05:10:29;5.10;99.90
15160;DHT22;7680;48.800;9.680;2024-02-21T05:15:33;5.10;99.90
15160;DHT22;7680;48.800;9.680;2024-02-21T05:20:36;4.90;99.90
15160;DHT22;7680;48.800;9.680;2024-02-21T05:25:40;4.80;99.90
15160;DHT22;7680;48.800;9.680;2024-02-21T05:30:44;4.80;99.90
15160;DHT22;7680;48.800;9.680;2024-02-21T05:35:47;4.80;99.90
15160;DHT22;7680;48.800;9.680;2024-02-21T05:40:52;4.70;99.90
15160;DHT22;7680;48.800;9.680;2024-02-21T05:45:55;4.50;99.90
15160;DHT22;7680;48.800;9.680;2024-02-21T05:50:58;4.30;99.90
15160;DHT22;7680;48.800;9.680;2024-02-21T05:56:10;4.10;99.90
15160;DHT22;7680;48.800;9.680;2024-02-21T06:01:13;4.00;99.90
15160;DHT22;7680;48.800;9.680;2024-02-21T06:06:16;4.00;99.90
15160;DHT22;7680;48.800;9.680;2024-02-21T06:11:21;4.00;99.90
15160;DHT22;7680;48.800;9.680;2024-02-21T06:16:24;3.90;99.90
15160;DHT22;7680;48.800;9.680;2024-02-21T06:21:29;3.70;99.90
15160;DHT22;7680;48.800;9.680;2024-02-21T06:26:33;3.70;99.90
15160;DHT22;7680;48.800;9.680;2024-02-21T06:31:36;3.70;99.90
15160;DHT22;7680;48.800;9.680;2024-02-21T06:36:40;3.70;99.90
15160;DHT22;7680;48.800;9.680;2024-02-21T06:41:44;3.60;99.90
15160;DHT22;7680;48.800;9.680;2024-02-21T06:46:48;3.70;99.90
15160;DHT22;7680;48.800;9.680;2024-02-21T06:51:51;3.80;99.90
15160;DHT22;7680;48.800;9.680;2024-02-21T06:56:56;4.00;99.90
15160;DHT22;7680;48.800;9.680;2024-02-21T07:01:59;4.10;99.90
15160;DHT22;7680;48.800;9.680;2024-02-21T07:07:02;4.30;99.90
15160;DHT22;7680;48.800;9.680;2024-02-21T07:12:08;4.60;99.90
15160;DHT22;7680;48.800;9.680;2024-02-21T07:17:11;4.90;99.90
15160;DHT22;7680;48.800;9.680;2024-02-21T07:22:14;5.20;99.90
15160;DHT22;7680;48.800;9.680;2024-02-21T07:27:18;5.20;99.90
15160;DHT22;7680;48.800;9.680;2024-02-21T07:32:22;5.30;99.90
15160;DHT22;7680;48.800;9.680;2024-02-21T07:37:25;5.50;99.90
15160;DHT22;7680;48.800;9.680;2024-02-21T07:42:33;5.60;99.90
15160;DHT22;7680;48.800;9.680;2024-02-21T07:47:37;6.00;99.90
15160;DHT22;7680;48.800;9.680;2024-02-21T07:52:40;6.30;99.90
15160;DHT22;7680;48.800;9.680;2024-02-21T07:57:45;6.70;99.90
15160;DHT22;7680;48.800;9.680;2024-02-21T08:02:48;7.00;99.90
15160;DHT22;7680;48.800;9.680;2024-02-21T08:07:52;7.50;99.90
15160;DHT22;7680;48.800;9.680;2024-02-21T08:13:00;7.80;99.90
15160;DHT22;7680;48.800;9.680;2024-02-21T08:18:04;7.70;99.90
15160;DHT22;7680;48.800;9.680;2024-02-21T08:23:07;8.20;99.90
15160;DHT22;7680;48.800;9.680;2024-02-21T08:28:13;8.30;99.90
15160;DHT22;7680;48.800;9.680;2024-02-21T08:33:16;8.50;99.90
15160;DHT22;7680;48.800;9.680;2024-02-21T08:38:20;8.90;99.90
15160;DHT22;7680;48.800;9.680;2024-02-21T08:43:25;9.10;99.90
15160;DHT22;7680;48.800;9.680;2024-02-21T08:48:28;9.40;99.90
15160;DHT22;7680;48.800;9.680;2024-02-21T08:53:31;9.50;99.90
15160;DHT22;7680;48.800;9.680;2024-02-21T08:58:36;9.90;99.90
15160;DHT22;7680;48.800;9.680;2024-02-21T09:03:40;9.90;99.90
15160;DHT22;7680;48.800;9.680;2024-02-21T09:08:44;9.80;99.90
15160;DHT22;7680;48.800;9.680;2024-02-21T09:13:49;10.00;99.90
15160;DHT22;7680;48.800;9.680;2024-02-21T09:18:52;10.00;99.90
15160;DHT22;7680;48.800;9.680;2024-02-21T09:23:55;10.20;99.90
15160;DHT22;7680;48.800;9.680;2024-02-21T09:29:02;10.00;99.90
15160;DHT22;7680;48.800;9.680;2024-02-21T09:34:06;10.10;99.90
15160;DHT22;7680;48.800;9.680;2024-02-21T09:39:09;10.20;99.90
15160;DHT22;7680;48.800;9.680;2024-02-21T09:44:17;10.00;99.90
15160;DHT22;7680;48.800;9.680;2024-02-21T09:49:30;10.00;99.90
15160;DHT22;7680;48.800;9.680;2024-02-21T09:54:34;10.20;99.90
15160;DHT22;7680;48.800;9.680;2024-02-21T09:59:39;10.40;99.90
15160;DHT22;7680;48.800;9.680;2024-02-21T10:04:43;10.60;99.90
15160;DHT22;7680;48.800;9.680;2024-02-21T10:09:47;10.90;99.90
15160;DHT22;7680;48.800;9.680;2024-02-21T10:15:01;10.80;99.90
15160;DHT22;7680;48.800;9.680;2024-02-21T10:20:07;11.00;99.90
15160;DHT22;7680;48.800;9.680;2024-02-21T10:25:13;11.20;99.90
15160;DHT22;7680;48.800;9.680;2024-02-21T10:30:17;11.50;99.90
15160;DHT22;7680;48.800;9.680;2024-02-21T10:35:27;11.50;99.90
15160;DHT22;7680;48.800;9.680;2024-02-21T10:40:32;11.70;99.90
15160;DHT22;7680;48.800;9.680;2024-02-21T10:45:37;11.60;99.90
15160;DHT22;7680;48.800;9.680;2024-02-21T10:50:50;11.90;99.90
15160;DHT22;7680;48.800;9.680;2024-02-21T10:56:06;12.10;99.90
15160;DHT22;7680;48.800;9.680;2024-02-21T11:01:19;12.10;99.90
15160;DHT22;7680;48.800;9.680;2024-02-21T11:06:25;12.20;99.90
15160;DHT22;7680;48.800;9.680;2024-02-21T11:11:33;12.10;99.90
15160;DHT22;7680;48.800;9.680;2024-02-21T11:16:43;12.30;99.90
15160;DHT22;7680;48.800;9.680;2024-02-21T11:21:46;12.50;99.90
15160;DHT22;7680;48.800;9.680;2024-02-21T11:26:49;12.50;99.90
15160;DHT22;7680;48.800;9.680;2024-02-21T11:31:54;12.50;99.70
15160;DHT22;7680;48.800;9.680;2024-02-21T11:36:57;12.30;99.00
15160;DHT22;7680;48.800;9.680;2024-02-21T11:42:02;12.60;97.40
15160;DHT22;7680;48.800;9.680;2024-02-21T11:47:07;12.40;99.10
15160;DHT22;7680;48.800;9.680;2024-02-21T11:52:11;12.40;98.60
15160;DHT22;7680;48.800;9.680;2024-02-21T11:57:17;12.60;97.60
15160;DHT22;7680;48.800;9.680;2024-02-21T12:02:22;12.50;97.70
15160;DHT22;7680;48.800;9.680;2024-02-21T12:07:25;12.60;97.20
15160;DHT22;7680;48.800;9.680;2024-02-21T12:12:30;12.50;97.70
15160;DHT22;7680;48.800;9.680;2024-02-21T12:17:39;12.50;96.50
15160;DHT22;7680;48.800;9.680;2024-02-21T12:22:43;12.90;94.80
15160;DHT22;7680;48.800;9.680;2024-02-21T12:27:47;12.90;96.30
15160;DHT22;7680;48.800;9.680;2024-02-21T12:32:52;13.00;97.40
15160;DHT22;7680;48.800;9.680;2024-02-21T12:37:55;12.80;98.90
15160;DHT22;7680;48.800;9.680;2024-02-21T12:42:59;12.90;98.80
15160;DHT22;7680;48.800;9.680;2024-02-21T12:48:06;13.00;96.70
15160;DHT22;7680;48.800;9.680;2024-02-21T12:53:10;12.90;98.40
15160;DHT22;7680;48.800;9.680;2024-02-21T12:58:26;12.90;96.80
15160;DHT22;7680;48.800;9.680;2024-02-21T13:03:34;13.10;96.80
15160;DHT22;7680;48.800;9.680;2024-02-21T13:08:38;13.00;96.50
15160;DHT22;7680;48.800;9.680;2024-02-21T13:13:41;12.90;98.20
15160;DHT22;7680;48.800;9.680;2024-02-21T13:18:46;12.90;98.00
15160;DHT22;7680;48.800;9.680;2024-02-21T13:23:50;12.60;97.60
15160;DHT22;7680;48.800;9.680;2024-02-21T13:28:53;12.70;97.70
15160;DHT22;7680;48.800;9.680;2024-02-21T13:33:57;12.70;98.20
15160;DHT22;7680;48.800;9.680;2024-02-21T13:39:00;12.60;97.80
15160;DHT22;7680;48.800;9.680;2024-02-21T13:44:06;12.50;99.60
15160;DHT22;7680;48.800;9.680;2024-02-21T13:49:12;12.50;98.40
15160;DHT22;7680;48.800;9.680;2024-02-21T13:54:16;12.80;97.60
15160;DHT22;7680;48.800;9.680;2024-02-21T13:59:21;12.60;99.20
15160;DHT22;7680;48.800;9.680;2024-02-21T14:04:25;12.60;97.90
15160;DHT22;7680;48.800;9.680;2024-02-21T14:09:29;12.60;98.50
15160;DHT22;7680;48.800;9.680;2024-02-21T14:14:32;12.40;99.80
15160;DHT22;7680;48.800;9.680;2024-02-21T14:19:40;12.30;99.80
15160;DHT22;7680;48.800;9.680;2024-02-21T14:24:43;12.30;99.90
15160;DHT22;7680;48.800;9.680;2024-02-21T14:29:49;12.20;99.90
15160;DHT22;7680;48.800;9.680;2024-02-21T14:34:53;12.20;99.90
15160;DHT22;7680;48.800;9.680;2024-02-21T14:39:57;12.20;99.90
15160;DHT22;7680;48.800;9.680;2024-02-21T14:45:02;12.20;99.90
15160;DHT22;7680;48.800;9.680;2024-02-21T14:50:09;12.10;99.90
15160;DHT22;7680;48.800;9.680;2024-02-21T14:55:13;12.10;99.90
15160;DHT22;7680;48.800;9.680;2024-02-21T15:00:17;12.10;99.90
15160;DHT22;7680;48.800;9.680;2024-02-21T15:05:24;12.00;99.90
15160;DHT22;7680;48.800;9.680;2024-02-21T15:10:27;12.00;99.90
15160;DHT22;7680;48.800;9.680;2024-02-21T15:15:30;12.00;99.90
15160;DHT22;7680;48.800;9.680;2024-02-21T15:20:35;12.00;99.90
15160;DHT22;7680;48.800;9.680;2024-02-21T15:25:39;11.90;99.90
15160;DHT22;7680;48.800;9.680;2024-02-21T15:30:42;11.90;99.90
15160;DHT22;7680;48.800;9.680;2024-02-21T15:35:46;11.90;99.90
15160;DHT22;7680;48.800;9.680;2024-02-21T15:40:50;11.90;99.90
15160;DHT22;7680;48.800;9.680;2024-02-21T15:45:53;11.80;99.90
15160;DHT22;7680;48.800;9.680;2024-02-21T15:50:58;11.70;99.90
15160;DHT22;7680;48.800;9.680;2024-02-21T15:56:02;11.60;99.90
15160;DHT22;7680;48.800;9.680;2024-02-21T16:01:08;11.40;99.90
15160;DHT22;7680;48.800;9.680;2024-02-21T16:06:14;11.30;99.90
15160;DHT22;7680;48.800;9.680;2024-02-21T16:11:18;11.20;99.90
15160;DHT22;7680;48.800;9.680;2024-02-21T16:16:21;11.10;99.90
15160;DHT22;7680;48.800;9.680;2024-02-21T16:21:26;11.20;99.90
15160;DHT22;7680;48.800;9.680;2024-02-21T16:26:29;11.10;99.90
15160;DHT22;7680;48.800;9.680;2024-02-21T16:31:32;10.90;99.90
15160;DHT22;7680;48.800;9.680;2024-02-21T16:36:38;10.90;99.90
15160;DHT22;7680;48.800;9.680;2024-02-21T16:41:41;10.70;99.90
15160;DHT22;7680;48.800;9.680;2024-02-21T16:46:44;10.60;99.90
15160;DHT22;7680;48.800;9.680;2024-02-21T16:51:49;10.50;99.90
15160;DHT22;7680;48.800;9.680;2024-02-21T16:56:53;10.40;99.90
15160;DHT22;7680;48.800;9.680;2024-02-21T17:01:56;10.30;99.90
15160;DHT22;7680;48.800;9.680;2024-02-21T17:07:01;10.10;99.90
15160;DHT22;7680;48.800;9.680;2024-02-21T17:12:05;9.90;99.90
15160;DHT22;7680;48.800;9.680;2024-02-21T17:17:09;9.80;99.90
15160;DHT22;7680;48.800;9.680;2024-02-21T17:22:13;9.70;99.90
15160;DHT22;7680;48.800;9.680;2024-02-21T17:27:16;9.60;99.90
15160;DHT22;7680;48.800;9.680;2024-02-21T17:32:20;9.40;99.90
15160;DHT22;7680;48.800;9.680;2024-02-21T17:37:24;9.30;99.90
15160;DHT22;7680;48.800;9.680;2024-02-21T17:42:27;9.30;99.90
15160;DHT22;7680;48.800;9.680;2024-02-21T17:47:30;9.10;99.90
15160;DHT22;7680;48.800;9.680;2024-02-21T17:52:35;9.10;99.90
15160;DHT22;7680;48.800;9.680;2024-02-21T17:57:38;9.00;99.90
15160;DHT22;7680;48.800;9.680;2024-02-21T18:02:42;9.00;99.90
15160;DHT22;7680;48.800;9.680;2024-02-21T18:07:46;9.00;99.90
15160;DHT22;7680;48.800;9.680;2024-02-21T18:12:49;8.90;99.90
15160;DHT22;7680;48.800;9.680;2024-02-21T18:17:53;8.80;99.90
15160;DHT22;7680;48.800;9.680;2024-02-21T18:22:57;8.70;99.90
15160;DHT22;7680;48.800;9.680;2024-02-21T18:28:01;8.70;99.90
15160;DHT22;7680;48.800;9.680;2024-02-21T18:33:05;8.70;99.90
15160;DHT22;7680;48.800;9.680;2024-02-21T18:38:11;8.70;99.90
15160;DHT22;7680;48.800;9.680;2024-02-21T18:43:15;8.60;99.90
15160;DHT22;7680;48.800;9.680;2024-02-21T18:48:19;8.50;99.90
15160;DHT22;7680;48.800;9.680;2024-02-21T18:53:23;8.50;99.90
15160;DHT22;7680;48.800;9.680;2024-02-21T18:58:26;8.80;99.90
15160;DHT22;7680;48.800;9.680;2024-02-21T19:03:30;8.50;99.90
15160;DHT22;7680;48.800;9.680;2024-02-21T19:08:34;8.30;99.90
15160;DHT22;7680;48.800;9.680;2024-02-21T19:13:37;8.40;99.90
15160;DHT22;7680;48.800;9.680;2024-02-21T19:18:40;8.30;99.90
15160;DHT22;7680;48.800;9.680;2024-02-21T19:23:45;8.30;99.90
15160;DHT22;7680;48.800;9.680;2024-02-21T19:28:48;8.50;99.90
15160;DHT22;7680;48.800;9.680;2024-02-21T19:33:52;8.30;99.90
15160;DHT22;7680;48.800;9.680;2024-02-21T19:38:57;8.40;99.90
15160;DHT22;7680;48.800;9.680;2024-02-21T19:44:00;8.40;99.90
15160;DHT22;7680;48.800;9.680;2024-02-21T19:49:03;8.50;99.90
15160;DHT22;7680;48.800;9.680;2024-02-21T19:54:08;8.40;99.90
15160;DHT22;7680;48.800;9.680;2024-02-21T19:59:25;8.60;99.90
15160;DHT22;7680;48.800;9.680;2024-02-21T20:04:29;8.40;99.90
15160;DHT22;7680;48.800;9.680;2024-02-21T20:09:34;8.30;99.90
15160;DHT22;7680;48.800;9.680;2024-02-21T20:14:38;8.60;99.90
15160;DHT22;7680;48.800;9.680;2024-02-21T20:19:41;8.70;99.90
15160;DHT22;7680;48.800;9.680;2024-02-21T20:24:46;9.00;99.90
15160;DHT22;7680;48.800;9.680;2024-02-21T20:29:49;9.10;99.90
15160;DHT22;7680;48.800;9.680;2024-02-21T20:34:52;9.30;99.90
15160;DHT22;7680;48.800;9.680;2024-02-21T20:39:57;9.50;99.90
15160;DHT22;7680;48.800;9.680;2024-02-21T20:45:00;9.60;99.90
15160;DHT22;7680;48.800;9.680;2024-02-21T20:50:04;9.80;99.90
15160;DHT22;7680;48.800;9.680;2024-02-21T20:55:09;10.50;99.90
15160;DHT22;7680;48.800;9.680;2024-02-21T21:00:13;10.30;99.90
15160;DHT22;7680;48.800;9.680;2024-02-21T21:05:17;10.50;99.90
15160;DHT22;7680;48.800;9.680;2024-02-21T21:10:22;10.60;99.90
15160;DHT22;7680;48.800;9.680;2024-02-21T21:15:25;10.60;99.90
15160;DHT22;7680;48.800;9.680;2024-02-21T21:20:30;10.60;99.90
15160;DHT22;7680;48.800;9.680;2024-02-21T21:25:37;10.50;99.90
15160;DHT22;7680;48.800;9.680;2024-02-21T21:30:41;10.40;99.90
15160;DHT22;7680;48.800;9.680;2024-02-21T21:35:45;10.30;99.90
15160;DHT22;7680;48.800;9.680;2024-02-21T21:40:52;10.20;99.90
15160;DHT22;7680;48.800;9.680;2024-02-21T21:45:55;10.10;99.90
15160;DHT22;7680;48.800;9.680;2024-02-21T21:50:58;10.10;99.90
15160;DHT22;7680;48.800;9.680;2024-02-21T21:56:03;10.00;99.90
15160;DHT22;7680;48.800;9.680;2024-02-21T22:01:11;10.00;99.90
15160;DHT22;7680;48.800;9.680;2024-02-21T22:06:15;10.00;99.90
15160;DHT22;7680;48.800;9.680;2024-02-21T22:11:20;10.00;99.90
15160;DHT22;7680;48.800;9.680;2024-02-21T22:16:23;9.90;99.90
15160;DHT22;7680;48.800;9.680;2024-02-21T22:21:26;10.00;99.90
15160;DHT22;7680;48.800;9.680;2024-02-21T22:26:31;9.90;99.90
15160;DHT22;7680;48.800;9.680;2024-02-21T22:31:34;9.90;99.90
15160;DHT22;7680;48.800;9.680;2024-02-21T22:36:37;9.80;99.90
15160;DHT22;7680;48.800;9.680;2024-02-21T22:41:42;9.80;99.90
15160;DHT22;7680;48.800;9.680;2024-02-21T22:46:46;9.80;99.90
15160;DHT22;7680;48.800;9.680;2024-02-21T22:51:50;9.70;99.90
15160;DHT22;7680;48.800;9.680;2024-02-21T22:56:54;9.70;99.90
15160;DHT22;7680;48.800;9.680;2024-02-21T23:01:57;9.70;99.90
15160;DHT22;7680;48.800;9.680;2024-02-21T23:07:01;9.60;99.90
15160;DHT22;7680;48.800;9.680;2024-02-21T23:12:06;9.50;99.90
15160;DHT22;7680;48.800;9.680;2024-02-21T23:17:11;9.50;99.90
15160;DHT22;7680;48.800;9.680;2024-02-21T23:22:14;9.50;99.90
15160;DHT22;7680;48.800;9.680;2024-02-21T23:27:18;9.30;99.90
15160;DHT22;7680;48.800;9.680;2024-02-21T23:32:21;9.30;99.90
15160;DHT22;7680;48.800;9.680;2024-02-21T23:37:26;9.30;99.90
15160;DHT22;7680;48.800;9.680;2024-02-21T23:42:30;9.20;99.90
15160;DHT22;7680;48.800;9.680;2024-02-21T23:47:33;9.20;99.90
15160;DHT22;7680;48.800;9.680;2024-02-21T23:52:37;9.10;99.90
15160;DHT22;7680;48.800;9.680;2024-02-21T23:57:41;9.10;99.90
